Baker, NV

2:49 PM PST on February 01, 2015 (GMT -0800)
Hwy 488 | Change Station
CLOSE
Current Station
Personal Weather Station
Location: Baker, NV
Elevation: 6437 ft
Nearby Weather Stations

Elev 6437 ft 39.01 °N, 114.20 °W | Updated 30 seconds ago

Partly Cloudy
Partly Cloudy
46.0 °F
Feels Like 46 °F
N
0.0
Wind Variable Wind from ESE

Today
High -- | Low -- °F
--% Chance of Precip.
Yesterday
High -- | Low -- °F
Precip. -- in
6:43 AM 4:57 PM
Waxing Gibbous, 96% visible
Pressure 30.14 in
Visibility 10.0 miles
Clouds Clear
Windchill 46 °F
Dew Point 33 °F
Humidity 61%
Rainfall 0.05 in
Snow Depth Not available.
UV 3 out of 12
Pollen .30 out of 12
Air Quality Not available.
Flu Activity Not available.
METAR KELY 012153Z AUTO 28010KT 10SM CLR 12/M18 A3017 RMK AO2 SLP204 T01171178

More Conditions Fewer Conditions

Pressure 30.14 in
Visibility 10.0 miles
Clouds Clear
Windchill 46 °F
Dew Point 33 °F
Humidity 61%
Rainfall 0.05 in
Snow Depth Not available.
UV 3 out of 12
Pollen .30 out of 12
Air Quality Not available.
Flu Activity Not available.
METAR KELY 012153Z AUTO 28010KT 10SM CLR 12/M18 A3017 RMK AO2 SLP204 T01171178

More Conditions Fewer Conditions

10-Day Weather Forecast

Almanac

Astronomy

Feb. 01, 2015 Rise Set
Actual Time
Civil Twilight
Nautical Twilight
Astronomical Twilight
Moon
Length of Visible Light
Length of Day
Tomorrow will be .
, % of the Moon is Illuminated

Today's Extremes

State Highs State Lows

Community

WunderPhotos

Upload Photos

1,792,581 photos uploaded!

WunderBlogs® & News

Nearby

Air Quality

  Air Quality AQ Index Pollutant
Not available.

Snow Depth

Station Depth Elevation

Earthquake Activity

City Distance Mag. Time & Date
Minimum magnitude displayed is 2.5.

Coastal Water Temperatures

Place Temperature

Nearby Weather Stations